Time;durP1;ratioP1;P1;durP2;ratioP2;P2;SDS_P1;SDS_P2;PMS_P1;PMS_P2;Temp;Humidity;BMP_temperature;BMP_pressure;BME280_temperature;BME280_humidity;BME280_pressure;Samples;Min_cycle;Max_cycle;Signal;HPM_P1;HPM_P2
2023/03/13 00:01:30;;;;;;;15.60;4.00;;;;;;;8.85;100.00;100257.50;5090185;28;20086;-36
2023/03/13 00:03:56;;;;;;;13.50;4.22;;;;;;;8.76;100.00;100232.75;5090807;28;20381;-36
2023/03/13 00:06:23;;;;;;;16.60;4.47;;;;;;;8.82;100.00;100241.78;5089656;28;20036;-36
2023/03/13 00:08:48;;;;;;;16.85;4.50;;;;;;;8.76;100.00;100230.06;5089916;28;20081;-36
2023/03/13 00:11:14;;;;;;;12.27;3.93;;;;;;;8.78;100.00;100227.94;5090479;28;20040;-36
2023/03/13 00:13:40;;;;;;;14.20;3.92;;;;;;;8.76;100.00;100219.28;5078035;28;20267;-36
2023/03/13 00:16:08;;;;;;;16.15;4.50;;;;;;;8.74;100.00;100216.81;5076348;28;20029;-36
2023/03/13 00:18:34;;;;;;;12.90;3.60;;;;;;;8.74;100.00;100216.00;5075948;28;20158;-36
2023/03/13 00:21:02;;;;;;;13.35;4.13;;;;;;;8.73;100.00;100208.94;5076178;28;20028;-36
2023/03/13 00:23:27;;;;;;;12.23;3.45;;;;;;;8.72;100.00;100199.22;5076110;28;20381;-36
2023/03/13 00:26:01;;;;;;;20.60;4.68;;;;;;;8.68;100.00;100201.56;5076150;28;20033;-36
2023/03/13 00:28:29;;;;;;;15.27;3.95;;;;;;;8.61;100.00;100191.97;5075682;28;20029;-36
2023/03/13 00:31:06;;;;;;;17.83;4.47;;;;;;;8.59;100.00;100172.50;5076306;28;20376;-36
2023/03/13 00:33:36;;;;;;;15.65;3.65;;;;;;;8.59;100.00;100175.19;5076288;28;20066;-36
2023/03/13 00:36:04;;;;;;;17.17;3.92;;;;;;;8.60;100.00;100169.59;5075958;28;20036;-36
2023/03/13 00:38:30;;;;;;;15.80;4.05;;;;;;;8.60;100.00;100174.16;5076095;28;20370;-36
2023/03/13 00:41:05;;;;;;;14.15;4.25;;;;;;;8.51;100.00;100155.63;5076615;28;20033;-36
2023/03/13 00:43:31;;;;;;;17.75;4.57;;;;;;;8.55;100.00;100153.31;5075817;28;20028;-36
2023/03/13 00:45:57;;;;;;;16.83;4.22;;;;;;;8.52;100.00;100151.06;5076581;28;20024;-36
2023/03/13 00:48:22;;;;;;;17.40;4.67;;;;;;;8.55;100.00;100149.78;5075720;28;20166;-36
2023/03/13 00:50:48;;;;;;;16.20;4.95;;;;;;;8.54;100.00;100153.50;5076011;28;20249;-36
2023/03/13 00:53:13;;;;;;;18.63;5.20;;;;;;;8.54;100.00;100137.34;5075295;28;20031;-36
2023/03/13 00:55:49;;;;;;;13.10;3.45;;;;;;;8.45;100.00;100123.44;5075371;28;20103;-36
2023/03/13 00:58:14;;;;;;;12.40;3.85;;;;;;;8.51;100.00;100136.78;5075612;28;20456;-36
2023/03/13 01:00:40;;;;;;;17.47;5.17;;;;;;;8.54;100.00;100122.03;5075480;28;20049;-36
2023/03/13 01:03:05;;;;;;;22.63;4.90;;;;;;;8.56;100.00;100111.00;5076055;28;20111;-36
2023/03/13 01:05:30;;;;;;;15.20;4.53;;;;;;;8.46;100.00;100098.94;5075436;28;20115;-36
2023/03/13 01:07:55;;;;;;;16.50;4.43;;;;;;;8.56;100.00;100105.63;5075394;28;20465;-36
2023/03/13 01:10:21;;;;;;;15.97;4.07;;;;;;;8.51;100.00;100095.53;5075346;28;20438;-36
2023/03/13 01:12:46;;;;;;;13.63;4.27;;;;;;;8.50;100.00;100080.44;5075285;28;20050;-36
2023/03/13 01:15:12;;;;;;;21.87;4.73;;;;;;;8.57;100.00;100091.91;5075261;28;20044;-36
2023/03/13 01:17:37;;;;;;;15.53;5.30;;;;;;;8.54;100.00;100080.75;5075192;28;20073;-36
2023/03/13 01:20:04;;;;;;;16.20;4.60;;;;;;;8.53;100.00;100069.16;5075749;28;20297;-36
2023/03/13 01:22:29;;;;;;;16.30;4.78;;;;;;;8.60;100.00;100071.75;5074942;28;20024;-36
2023/03/13 01:24:55;;;;;;;17.48;3.88;;;;;;;8.63;100.00;100071.25;5073741;28;20028;-36
2023/03/13 01:27:20;;;;;;;17.63;4.40;;;;;;;8.65;100.00;100055.69;5074952;28;20028;-36
2023/03/13 01:29:45;;;;;;;14.73;4.17;;;;;;;8.56;100.00;100039.06;5074916;28;20032;-36
2023/03/13 01:32:11;;;;;;;16.80;4.53;;;;;;;8.64;100.00;100049.47;5074896;28;20035;-36
2023/03/13 01:34:36;;;;;;;11.97;4.13;;;;;;;8.67;100.00;100049.00;5074576;28;20120;-36
2023/03/13 01:37:01;;;;;;;14.00;4.03;;;;;;;8.72;100.00;100054.47;5074726;28;20052;-36
2023/03/13 01:39:26;;;;;;;12.13;3.70;;;;;;;8.67;100.00;100034.69;5074506;28;20401;-36
2023/03/13 01:41:52;;;;;;;14.93;4.03;;;;;;;8.75;100.00;100029.75;5074583;28;20517;-36
2023/03/13 01:44:24;;;;;;;12.87;4.00;;;;;;;8.71;100.00;100015.13;5074908;28;20025;-36
2023/03/13 01:46:50;;;;;;;13.88;4.15;;;;;;;8.78;100.00;100006.88;5074876;28;20074;-36
2023/03/13 01:49:22;;;;;;;12.98;4.32;;;;;;;8.81;100.00;100002.91;5074778;28;20392;-36
2023/03/13 01:51:57;;;;;;;13.95;4.00;;;;;;;8.92;100.00;100005.53;5074672;28;20028;-36
2023/03/13 01:54:29;;;;;;;15.82;5.03;;;;;;;8.96;100.00;100004.00;5074479;28;20039;-36
2023/03/13 01:57:17;;;;;;;9.07;3.60;;;;;;;9.00;100.00;99996.25;5074329;28;20444;-36
2023/03/13 01:59:48;;;;;;;10.13;3.40;;;;;;;8.99;100.00;99987.34;5075135;28;20424;-37
2023/03/13 02:02:14;;;;;;;11.38;3.13;;;;;;;9.06;100.00;99972.91;5074788;28;20103;-36
2023/03/13 02:04:46;;;;;;;10.95;2.80;;;;;;;9.05;100.00;99965.88;5074495;28;20094;-36
2023/03/13 02:07:17;;;;;;;10.43;3.28;;;;;;;9.11;100.00;99964.91;5074149;28;20035;-36
2023/03/13 02:09:48;;;;;;;8.93;3.17;;;;;;;9.16;100.00;99951.50;5074947;28;20029;-36
2023/03/13 02:12:35;;;;;;;10.30;3.22;;;;;;;9.23;100.00;99946.78;5074327;28;20467;-36
2023/03/13 02:15:08;;;;;;;10.05;3.67;;;;;;;9.33;100.00;99946.97;5074264;28;20078;-36
2023/03/13 02:17:35;;;;;;;10.75;3.53;;;;;;;9.34;100.00;99932.41;5074465;28;20033;-36
2023/03/13 02:20:01;;;;;;;12.65;4.18;;;;;;;9.37;100.00;99923.81;5074236;28;20047;-36
2023/03/13 02:22:45;;;;;;;8.18;3.20;;;;;;;9.44;100.00;99919.06;5074543;28;20020;-36
2023/03/13 02:25:34;;;;;;;10.00;3.20;;;;;;;9.45;100.00;99904.50;5074457;28;20038;-36
2023/03/13 02:28:06;;;;;;;8.10;3.03;;;;;;;9.48;100.00;99898.63;5073870;28;20020;-36
2023/03/13 02:30:32;;;;;;;7.65;3.22;;;;;;;9.50;100.00;99880.28;5074105;28;20029;-36
2023/03/13 02:32:58;;;;;;;;;;;;;;;9.55;100.00;99885.75;5074747;28;20024;-36
2023/03/13 02:35:24;;;;;;;10.75;3.40;;;;;;;9.59;100.00;99894.19;5073858;28;20007;-36
2023/03/13 02:37:53;;;;;;;6.60;3.17;;;;;;;9.42;100.00;99864.53;5074228;28;20024;-36
2023/03/13 02:40:27;;;;;;;6.82;3.20;;;;;;;9.64;100.00;99888.06;5074204;28;20294;-36
2023/03/13 02:42:54;;;;;;;9.50;3.78;;;;;;;9.68;100.00;99889.19;5073620;28;20060;-36
2023/03/13 02:45:20;;;;;;;9.13;4.03;;;;;;;9.75;100.00;99884.41;5074456;28;20436;-36
2023/03/13 02:47:45;;;;;;;9.95;4.63;;;;;;;9.71;100.00;99886.81;5073617;28;20112;-36
2023/03/13 02:50:12;;;;;;;5.63;3.63;;;;;;;9.77;100.00;99893.91;5073988;28;20028;-36
2023/03/13 02:52:51;;;;;;;6.35;3.28;;;;;;;9.76;100.00;99895.00;5073578;28;20068;-36
2023/03/13 02:55:28;;;;;;;8.07;3.55;;;;;;;9.79;100.00;99878.28;5073587;28;20040;-36
2023/03/13 02:57:54;;;;;;;8.95;3.80;;;;;;;9.83;100.00;99875.91;5074025;28;20025;-36
2023/03/13 03:00:20;;;;;;;6.38;4.15;;;;;;;9.85;100.00;99884.56;5073787;28;20482;-36
2023/03/13 03:02:46;;;;;;;8.32;3.85;;;;;;;9.85;100.00;99883.75;5073783;28;20028;-36
2023/03/13 03:05:12;;;;;;;7.63;4.03;;;;;;;9.90;100.00;99886.50;5073183;28;20051;-36
2023/03/13 03:07:37;;;;;;;;;;;;;;;9.91;100.00;99883.59;5073899;28;20031;-36
2023/03/13 03:10:04;;;;;;;10.20;4.70;;;;;;;9.95;100.00;99889.28;5073428;28;19909;-36
2023/03/13 03:12:29;;;;;;;5.63;3.63;;;;;;;9.99;100.00;99875.03;5073063;28;20819;-36
2023/03/13 03:14:55;;;;;;;5.75;3.97;;;;;;;9.99;100.00;99879.63;5073699;28;20024;-36
2023/03/13 03:17:20;;;;;;;7.53;4.70;;;;;;;10.02;100.00;99879.94;5073337;28;20365;-36
2023/03/13 03:19:45;;;;;;;4.85;4.07;;;;;;;10.03;100.00;99872.66;5073588;28;20100;-36
2023/03/13 03:22:11;;;;;;;7.77;4.10;;;;;;;10.03;100.00;99868.06;5073261;28;20479;-36
2023/03/13 03:24:36;;;;;;;9.77;4.40;;;;;;;10.05;100.00;99874.06;5073370;28;20457;-36
2023/03/13 03:27:01;;;;;;;8.67;4.23;;;;;;;10.03;100.00;99873.47;5073770;28;20274;-36
2023/03/13 03:29:27;;;;;;;6.63;4.30;;;;;;;10.13;100.00;99871.97;5073508;28;20036;-36
2023/03/13 03:31:53;;;;;;;6.85;3.90;;;;;;;10.14;100.00;99860.09;5073154;28;20271;-36
2023/03/13 03:34:19;;;;;;;5.38;4.00;;;;;;;10.16;100.00;99861.47;5073484;28;20028;-36
2023/03/13 03:36:44;;;;;;;7.10;4.53;;;;;;;10.18;100.00;99861.22;5073353;28;20025;-36
2023/03/13 03:39:10;;;;;;;8.13;4.60;;;;;;;10.22;100.00;99867.75;5073215;28;20043;-36
2023/03/13 03:41:36;;;;;;;6.90;4.67;;;;;;;10.10;100.00;99842.75;5073328;28;20037;-36
2023/03/13 03:44:02;;;;;;;9.10;4.80;;;;;;;10.27;100.00;99867.84;5073128;28;20055;-36
2023/03/13 03:46:28;;;;;;;6.43;4.28;;;;;;;10.20;100.00;99859.91;5072797;28;20077;-36
2023/03/13 03:48:53;;;;;;;6.97;4.83;;;;;;;10.27;100.00;99865.13;5076366;28;20029;-36
2023/03/13 03:51:19;;;;;;;6.63;4.90;;;;;;;10.31;100.00;99868.97;5077064;28;20273;-36
2023/03/13 03:53:44;;;;;;;6.53;4.60;;;;;;;10.31;100.00;99874.38;5076756;28;20106;-36
2023/03/13 03:56:10;;;;;;;7.80;5.33;;;;;;;10.35;100.00;99870.09;5076972;28;20035;-36
2023/03/13 03:58:35;;;;;;;8.57;4.93;;;;;;;10.32;100.00;99851.69;5076903;28;20033;-36
2023/03/13 04:01:00;;;;;;;6.10;4.77;;;;;;;10.30;100.00;99845.72;5076995;28;20786;-36
2023/03/13 04:03:26;;;;;;;6.50;4.73;;;;;;;10.37;100.00;99859.84;5076871;28;20095;-36
2023/03/13 04:05:51;;;;;;;6.53;4.68;;;;;;;10.37;100.00;99857.16;5076799;28;20492;-36
2023/03/13 04:08:17;;;;;;;5.68;4.60;;;;;;;10.35;100.00;99845.78;5076133;28;20384;-36
2023/03/13 04:10:42;;;;;;;5.37;4.63;;;;;;;10.44;100.00;99841.56;5076457;28;20060;-36
2023/03/13 04:13:08;;;;;;;6.17;4.70;;;;;;;10.46;100.00;99847.53;5076305;28;20277;-36
2023/03/13 04:15:33;;;;;;;6.13;5.03;;;;;;;10.45;100.00;99850.47;5076323;28;20263;-36
2023/03/13 04:17:59;;;;;;;7.22;5.07;;;;;;;10.50;100.00;99842.44;5075962;28;20279;-36
2023/03/13 04:20:25;;;;;;;7.00;5.00;;;;;;;10.52;100.00;99841.09;5076184;28;20033;-36
2023/03/13 04:22:50;;;;;;;5.57;4.95;;;;;;;10.57;100.00;99838.44;5076218;28;20115;-36
2023/03/13 04:25:15;;;;;;;6.83;5.23;;;;;;;10.60;100.00;99822.78;5075974;28;20033;-36
2023/03/13 04:27:41;;;;;;;6.78;5.03;;;;;;;10.62;100.00;99823.34;5076607;28;20024;-35
2023/03/13 04:30:07;;;;;;;5.90;4.87;;;;;;;10.64;100.00;99807.66;5076681;28;20048;-35
2023/03/13 04:32:33;;;;;;;5.05;4.55;;;;;;;10.65;100.00;99810.13;5074809;28;20033;-35
2023/03/13 04:34:58;;;;;;;6.83;4.60;;;;;;;10.62;100.00;99788.19;5076570;28;20054;-35
2023/03/13 04:37:24;;;;;;;5.63;4.33;;;;;;;10.72;100.00;99801.81;5075916;28;20029;-35
2023/03/13 04:39:49;;;;;;;5.00;3.97;;;;;;;10.76;100.00;99784.00;5076779;28;20266;-35
2023/03/13 04:42:15;;;;;;;5.43;3.97;;;;;;;10.76;100.00;99782.09;5076011;28;20089;-35
2023/03/13 04:44:40;;;;;;;8.70;4.20;;;;;;;10.77;100.00;99791.03;5075826;28;20317;-35
2023/03/13 04:47:05;;;;;;;7.90;4.53;;;;;;;10.82;100.00;99786.47;5075767;28;20099;-35
2023/03/13 04:49:31;;;;;;;6.20;3.45;;;;;;;10.89;100.00;99780.88;5075751;28;20028;-35
2023/03/13 04:51:56;;;;;;;5.43;3.30;;;;;;;10.91;100.00;99772.47;5075398;28;20487;-36
2023/03/13 04:54:22;;;;;;;4.13;3.40;;;;;;;10.94;100.00;99780.09;5076520;28;20028;-36
2023/03/13 04:56:47;;;;;;;4.95;3.60;;;;;;;10.89;100.00;99772.75;5075637;28;20274;-35
2023/03/13 04:59:14;;;;;;;4.90;3.20;;;;;;;10.99;100.00;99780.94;5076017;28;20514;-36
2023/03/13 05:01:41;;;;;;;5.57;3.10;;;;;;;11.00;100.00;99776.34;5075238;28;20040;-35
2023/03/13 05:04:07;;;;;;;5.10;3.17;;;;;;;10.99;100.00;99775.53;5075173;28;20024;-35
2023/03/13 05:06:32;;;;;;;5.22;3.47;;;;;;;11.06;100.00;99770.69;5075401;28;20047;-36
2023/03/13 05:08:58;;;;;;;5.40;2.90;;;;;;;11.00;100.00;99749.28;5075144;28;20469;-36
2023/03/13 05:11:23;;;;;;;4.33;3.00;;;;;;;11.07;100.00;99756.09;5075084;28;20153;-36
2023/03/13 05:13:48;;;;;;;4.23;2.90;;;;;;;11.05;100.00;99752.03;5075552;28;20064;-35
2023/03/13 05:16:14;;;;;;;5.43;2.90;;;;;;;11.18;100.00;99769.72;5075806;28;20024;-36
2023/03/13 05:18:39;;;;;;;5.27;2.60;;;;;;;11.13;100.00;99756.16;5075145;28;20262;-35
2023/03/13 05:21:06;;;;;;;4.40;2.47;;;;;;;11.24;100.00;99771.38;5075569;28;20060;-36
2023/03/13 05:23:31;;;;;;;5.35;2.72;;;;;;;11.20;100.00;99749.41;5074959;28;20059;-35
2023/03/13 05:25:56;;;;;;;5.80;2.97;;;;;;;11.31;100.00;99755.69;5074746;28;20028;-35
2023/03/13 05:28:22;;;;;;;6.45;2.80;;;;;;;11.33;100.00;99748.16;5074838;28;20024;-35
2023/03/13 05:30:47;;;;;;;8.30;3.38;;;;;;;11.39;100.00;99751.69;5075118;28;20032;-35
2023/03/13 05:33:13;;;;;;;5.03;2.43;;;;;;;11.40;100.00;99743.28;5074812;28;20456;-36
2023/03/13 05:35:38;;;;;;;5.63;2.30;;;;;;;11.39;100.00;99752.50;5075098;28;20033;-35
2023/03/13 05:38:03;;;;;;;4.77;2.27;;;;;;;11.37;100.00;99743.00;5074813;28;20028;-35
2023/03/13 05:40:29;;;;;;;4.73;2.13;;;;;;;11.40;100.00;99735.19;5074764;28;20025;-35
2023/03/13 05:42:54;;;;;;;3.90;2.13;;;;;;;11.50;100.00;99746.03;5074435;28;20024;-35
2023/03/13 05:45:20;;;;;;;4.15;2.20;;;;;;;11.48;100.00;99756.34;5074677;28;20735;-36
2023/03/13 05:47:46;;;;;;;4.80;2.35;;;;;;;11.51;100.00;99744.16;5075078;28;20077;-35
2023/03/13 05:50:11;;;;;;;10.27;2.38;;;;;;;11.56;100.00;99752.28;5074833;28;20038;-35
2023/03/13 05:52:36;;;;;;;6.57;2.10;;;;;;;11.59;100.00;99749.06;5074803;28;20476;-36
2023/03/13 05:55:02;;;;;;;5.57;2.30;;;;;;;11.57;100.00;99749.34;5074486;28;20266;-36
2023/03/13 05:57:27;;;;;;;5.68;2.30;;;;;;;11.53;100.00;99745.53;5074359;28;20067;-36
2023/03/13 05:59:53;;;;;;;8.20;2.03;;;;;;;11.63;100.00;99747.47;5074180;28;20032;-36
2023/03/13 06:02:19;;;;;;;5.50;2.08;;;;;;;11.70;100.00;99747.22;5075372;28;20404;-35
2023/03/13 06:04:45;;;;;;;6.90;2.17;;;;;;;11.74;100.00;99746.41;5073935;28;20059;-35
2023/03/13 06:07:10;;;;;;;5.03;2.00;;;;;;;11.73;100.00;99754.81;5074484;28;20071;-35
2023/03/13 06:09:35;;;;;;;8.33;2.13;;;;;;;11.69;100.00;99730.16;5074536;28;20031;-35
2023/03/13 06:12:01;;;;;;;4.30;1.80;;;;;;;11.70;100.00;99758.84;5073918;28;20056;-35
2023/03/13 06:14:26;;;;;;;4.90;1.90;;;;;;;11.65;100.00;99745.31;5074174;28;20036;-35
2023/03/13 06:16:53;;;;;;;4.97;2.00;;;;;;;11.67;100.00;99734.22;5073995;28;20103;-36
2023/03/13 06:19:19;;;;;;;4.85;2.13;;;;;;;11.78;100.00;99722.34;5074870;28;20411;-36
2023/03/13 06:21:45;;;;;;;8.00;2.05;;;;;;;11.78;100.00;99738.59;5074134;28;20025;-36
2023/03/13 06:24:10;;;;;;;4.95;2.00;;;;;;;11.78;100.00;99727.75;5073977;28;20142;-37
2023/03/13 06:26:36;;;;;;;4.93;1.95;;;;;;;11.71;100.00;99714.47;5073992;28;20036;-36
2023/03/13 06:29:01;;;;;;;4.70;1.77;;;;;;;11.78;100.00;99725.84;5074100;28;20033;-36
2023/03/13 06:31:26;;;;;;;6.68;2.50;;;;;;;11.84;100.00;99737.56;5073926;28;20032;-36
2023/03/13 06:33:53;;;;;;;5.47;2.30;;;;;;;11.77;100.00;99734.25;5073540;28;20024;-37
2023/03/13 06:36:19;;;;;;;5.10;2.20;;;;;;;11.86;100.00;99732.69;5073497;28;20028;-36
2023/03/13 06:38:44;;;;;;;3.97;1.73;;;;;;;11.78;100.00;99735.88;5073678;28;20031;-36
2023/03/13 06:41:09;;;;;;;4.93;1.93;;;;;;;11.84;100.00;99734.84;5073925;28;20502;-37
2023/03/13 06:43:35;;;;;;;3.80;1.77;;;;;;;11.81;100.00;99738.88;5073672;28;20024;-36
2023/03/13 06:46:04;;;;;;;7.23;2.40;;;;;;;11.87;100.00;99736.22;5073819;28;20117;-36
2023/03/13 06:48:29;;;;;;;10.40;2.17;;;;;;;11.76;100.00;99719.06;5074146;28;20082;-36
2023/03/13 06:50:55;;;;;;;4.07;1.63;;;;;;;11.90;100.00;99735.66;5073975;28;20427;-36
2023/03/13 06:53:21;;;;;;;4.90;2.20;;;;;;;11.88;100.00;99737.84;5073507;28;20332;-36
2023/03/13 06:55:47;;;;;;;5.20;1.88;;;;;;;11.90;100.00;99739.19;5073595;28;20047;-36
2023/03/13 06:58:13;;;;;;;4.78;2.15;;;;;;;11.89;100.00;99734.84;5073778;28;20074;-35
2023/03/13 07:00:39;;;;;;;5.50;2.33;;;;;;;11.88;100.00;99718.88;5073745;28;20497;-36
2023/03/13 07:03:05;;;;;;;5.40;2.15;;;;;;;11.93;100.00;99725.13;5074298;28;20028;-36
2023/03/13 07:05:31;;;;;;;4.28;1.77;;;;;;;11.99;100.00;99726.75;5073239;28;20107;-36
2023/03/13 07:07:56;;;;;;;4.50;1.85;;;;;;;11.89;100.00;99707.78;5073015;28;20034;-36
2023/03/13 07:10:21;;;;;;;7.03;1.97;;;;;;;11.98;100.00;99741.38;5073425;28;20060;-36
2023/03/13 07:12:47;;;;;;;4.43;1.90;;;;;;;11.99;100.00;99725.94;5073923;28;20035;-36
2023/03/13 07:15:12;;;;;;;7.10;2.40;;;;;;;11.98;100.00;99730.56;5073456;28;20353;-36
2023/03/13 07:17:38;;;;;;;6.47;1.95;;;;;;;12.00;100.00;99719.44;5073936;28;20071;-36
2023/03/13 07:20:05;;;;;;;4.57;1.83;;;;;;;12.00;100.00;99714.81;5073094;28;20036;-35
2023/03/13 07:22:31;;;;;;;6.45;2.22;;;;;;;12.05;100.00;99731.13;5074364;28;20099;-35
2023/03/13 07:24:56;;;;;;;3.97;2.05;;;;;;;12.10;100.00;99722.16;5077355;28;20058;-36
2023/03/13 07:27:22;;;;;;;7.70;2.13;;;;;;;12.05;100.00;99722.16;5076971;28;20020;-36
2023/03/13 07:29:48;;;;;;;8.85;2.85;;;;;;;12.20;100.00;99729.50;5078045;28;20274;-35
2023/03/13 07:32:14;;;;;;;6.45;1.98;;;;;;;12.17;100.00;99711.91;5076917;28;20500;-36
2023/03/13 07:34:39;;;;;;;8.05;2.10;;;;;;;12.23;100.00;99726.25;5077405;28;20029;-36
2023/03/13 07:37:04;;;;;;;5.70;1.90;;;;;;;12.27;100.00;99727.34;5076815;28;20044;-36
2023/03/13 07:39:30;;;;;;;4.05;1.60;;;;;;;12.25;100.00;99726.78;5077906;28;20025;-36
2023/03/13 07:41:56;;;;;;;4.63;2.17;;;;;;;12.30;100.00;99718.69;5077431;28;20028;-35
2023/03/13 07:44:21;;;;;;;8.95;2.47;;;;;;;12.25;100.00;99715.94;5077307;28;20029;-36
2023/03/13 07:46:47;;;;;;;5.90;2.03;;;;;;;12.28;100.00;99721.66;5077436;28;20025;-36
2023/03/13 07:49:12;;;;;;;4.07;1.60;;;;;;;12.31;100.00;99731.97;5076818;28;20262;-36
2023/03/13 07:51:38;;;;;;;7.82;2.17;;;;;;;12.35;100.00;99737.69;5076832;28;20063;-36
2023/03/13 07:54:03;;;;;;;4.15;1.83;;;;;;;12.32;100.00;99730.06;5077031;28;20032;-36
2023/03/13 07:56:29;;;;;;;9.03;2.00;;;;;;;12.31;100.00;99736.59;5076786;28;20357;-36
2023/03/13 07:58:55;;;;;;;6.72;2.10;;;;;;;12.26;100.00;99720.31;5076592;28;20461;-36
2023/03/13 08:01:23;;;;;;;5.03;1.75;;;;;;;12.28;100.00;99731.69;5077100;28;20055;-36
2023/03/13 08:03:49;;;;;;;3.78;1.35;;;;;;;12.27;100.00;99732.78;5076885;28;20457;-35
2023/03/13 08:06:17;;;;;;;6.63;2.15;;;;;;;12.29;100.00;99727.88;5076324;28;20484;-36
2023/03/13 08:08:44;;;;;;;4.32;1.77;;;;;;;12.26;100.00;99713.00;5076510;28;20028;-36
2023/03/13 08:11:20;;;;;;;3.92;1.85;;;;;;;12.35;100.00;99724.13;5076481;28;20040;-36
2023/03/13 08:13:46;;;;;;;6.90;2.22;;;;;;;12.31;100.00;99710.28;5076687;28;20145;-36
2023/03/13 08:16:19;;;;;;;6.43;2.00;;;;;;;12.42;100.00;99716.53;5076641;28;20033;-36
2023/03/13 08:18:46;;;;;;;5.85;1.80;;;;;;;12.49;100.00;99706.25;5076008;28;20024;-36
2023/03/13 08:21:14;;;;;;;4.82;1.65;;;;;;;12.53;100.00;99714.63;5076162;28;20502;-36
2023/03/13 08:23:40;;;;;;;6.72;2.17;;;;;;;12.56;100.00;99724.94;5076711;28;20028;-36
2023/03/13 08:26:14;;;;;;;5.82;2.20;;;;;;;12.55;100.00;99699.72;5076285;28;20449;-36
2023/03/13 08:28:40;;;;;;;4.75;1.65;;;;;;;12.59;100.00;99713.53;5076624;28;20024;-36
2023/03/13 08:31:16;;;;;;;;;;;;;;;12.61;100.00;99714.91;5077130;28;20020;-36
2023/03/13 08:33:43;;;;;;;5.63;1.90;;;;;;;12.59;100.00;99705.41;5075862;28;19908;-36
2023/03/13 08:36:16;;;;;;;7.50;2.25;;;;;;;12.68;100.00;99709.19;5076837;28;20040;-36
2023/03/13 08:38:43;;;;;;;6.15;1.70;;;;;;;12.70;100.00;99714.38;5075918;28;20111;-35
2023/03/13 08:41:08;;;;;;;7.18;2.00;;;;;;;12.62;100.00;99710.28;5075863;28;20072;-35
2023/03/13 08:43:34;;;;;;;3.72;1.55;;;;;;;12.58;100.00;99715.44;5076477;28;20033;-36
2023/03/13 08:45:59;;;;;;;6.87;2.23;;;;;;;12.55;100.00;99710.56;5076185;28;20028;-35
2023/03/13 08:48:25;;;;;;;5.07;1.80;;;;;;;12.41;100.00;99709.47;5074555;28;20274;-36
2023/03/13 08:51:04;;;;;;;6.85;2.20;;;;;;;12.40;100.00;99726.84;5076596;28;20453;-36
2023/03/13 08:53:31;;;;;;;5.95;1.95;;;;;;;12.30;100.00;99718.69;5075992;28;20031;-36
2023/03/13 08:55:56;;;;;;;6.60;2.47;;;;;;;12.25;100.00;99710.53;5075965;28;20021;-36
2023/03/13 08:58:22;;;;;;;5.97;2.28;;;;;;;12.22;100.00;99701.06;5075172;28;20415;-36
2023/03/13 09:00:47;;;;;;;5.78;1.83;;;;;;;12.22;100.00;99697.53;5075291;28;20066;-36
2023/03/13 09:03:13;;;;;;;6.27;2.00;;;;;;;12.23;100.00;99680.19;5076097;28;20099;-35
2023/03/13 09:05:39;;;;;;;5.32;1.83;;;;;;;12.41;100.00;99695.94;5075198;28;20654;-35
2023/03/13 09:08:04;;;;;;;5.68;1.65;;;;;;;12.55;100.00;99685.34;5075646;28;20425;-36
2023/03/13 09:10:34;;;;;;;6.30;1.90;;;;;;;12.65;100.00;99660.13;5076196;28;20115;-36
2023/03/13 09:12:59;;;;;;;5.55;2.08;;;;;;;12.63;100.00;99657.66;5075290;28;20071;-36
2023/03/13 09:15:25;;;;;;;3.47;1.35;;;;;;;12.78;100.00;99660.34;5075341;28;20461;-35
2023/03/13 09:17:50;;;;;;;5.40;1.70;;;;;;;13.01;100.00;99677.94;5075527;28;20036;-36
2023/03/13 09:20:17;;;;;;;3.57;1.50;;;;;;;13.25;100.00;99652.94;5075446;28;20263;-36
2023/03/13 09:22:43;;;;;;;2.97;1.17;;;;;;;13.43;100.00;99659.66;5074985;28;20111;-35
2023/03/13 09:25:08;;;;;;;4.93;1.75;;;;;;;13.64;100.00;99655.75;5075417;28;20063;-36
2023/03/13 09:27:34;;;;;;;6.03;1.40;;;;;;;13.74;100.00;99644.00;5075019;28;20422;-36
2023/03/13 09:29:59;;;;;;;6.00;1.73;;;;;;;13.74;100.00;99638.56;5075014;28;20040;-36
2023/03/13 09:32:24;;;;;;;4.72;1.27;;;;;;;13.86;100.00;99626.28;5075221;28;20028;-36
2023/03/13 09:34:50;;;;;;;3.72;1.67;;;;;;;13.96;100.00;99616.41;5075249;28;20032;-36
2023/03/13 09:37:15;;;;;;;4.60;1.53;;;;;;;14.09;100.00;99616.56;5074817;28;20052;-36
2023/03/13 09:39:40;;;;;;;5.43;1.60;;;;;;;14.28;100.00;99626.75;5075106;28;20266;-36
2023/03/13 09:42:20;;;;;;;3.92;1.80;;;;;;;14.35;100.00;99630.00;5075415;28;20103;-36
2023/03/13 09:45:02;;;;;;;4.28;1.77;;;;;;;14.45;100.00;99615.47;5074856;28;20031;-36
2023/03/13 09:47:40;;;;;;;4.03;1.48;;;;;;;14.49;100.00;99603.75;5074239;28;20029;-36
2023/03/13 09:50:20;;;;;;;6.15;1.55;;;;;;;14.51;100.00;99598.84;5075109;28;20112;-36
2023/03/13 09:52:50;;;;;;;6.00;1.30;;;;;;;14.57;100.00;99616.72;5074561;28;20486;-36
2023/03/13 09:55:48;;;;;;;3.08;1.50;;;;;;;14.63;100.00;99603.88;5074732;28;20427;-36
2023/03/13 09:58:18;;;;;;;7.15;1.80;;;;;;;14.52;100.00;99605.09;5062396;28;20071;-37
2023/03/13 10:01:03;;;;;;;2.42;1.00;;;;;;;14.43;100.00;99616.56;5073851;28;20473;-37
2023/03/13 10:03:39;;;;;;;3.92;1.20;;;;;;;14.33;100.00;99607.69;5074062;28;20503;-37
2023/03/13 10:06:14;;;;;;;3.95;1.30;;;;;;;14.45;100.00;99594.53;5074859;28;20469;-37
2023/03/13 10:08:40;;;;;;;4.55;1.20;;;;;;;14.50;100.00;99610.84;5073798;28;20016;-37
2023/03/13 10:11:26;;;;;;;4.40;1.38;;;;;;;14.52;100.00;99605.91;5074499;28;20029;-36
2023/03/13 10:14:01;;;;;;;6.35;1.10;;;;;;;14.64;100.00;99603.63;5074159;28;20036;-36
2023/03/13 10:16:33;;;;;;;3.00;1.20;;;;;;;14.81;100.00;99596.91;5074310;28;20055;-36
2023/03/13 10:19:08;;;;;;;3.58;1.27;;;;;;;14.94;100.00;99594.31;5073695;28;20108;-36
2023/03/13 10:21:35;;;;;;;3.42;1.30;;;;;;;14.89;100.00;99588.94;5074147;28;20040;-36
2023/03/13 10:24:11;;;;;;;2.38;1.13;;;;;;;14.87;100.00;99582.13;5073631;28;20145;-36
2023/03/13 10:26:36;;;;;;;5.30;1.00;;;;;;;14.91;100.00;99585.91;5073991;28;20099;-36
2023/03/13 10:29:23;;;;;;;12.15;1.10;;;;;;;14.94;99.59;99582.63;5073604;28;20103;-36
2023/03/13 10:32:04;;;;;;;4.22;1.00;;;;;;;14.87;98.73;99584.84;5074466;28;20396;-36
2023/03/13 10:34:53;;;;;;;4.78;1.52;;;;;;;14.92;99.81;99587.53;5074046;28;20028;-37
2023/03/13 10:37:23;;;;;;;2.72;0.95;;;;;;;14.92;99.93;99571.19;5073895;28;20025;-37
2023/03/13 10:39:48;;;;;;;2.65;0.82;;;;;;;14.96;100.00;99577.69;5073794;28;20031;-37
2023/03/13 10:42:32;;;;;;;5.68;1.20;;;;;;;14.93;99.73;99576.38;5073720;28;20025;-37
2023/03/13 10:45:00;;;;;;;2.63;1.05;;;;;;;15.08;100.00;99569.09;5073976;28;20465;-37
2023/03/13 10:47:31;;;;;;;3.50;1.13;;;;;;;15.28;100.00;99570.75;5073592;28;20025;-37
2023/03/13 10:49:57;;;;;;;3.58;1.30;;;;;;;15.29;98.76;99540.50;5073636;28;20583;-37
2023/03/13 10:52:30;;;;;;;1.77;0.80;;;;;;;15.29;99.81;99543.22;5073901;28;20033;-37
2023/03/13 10:55:04;;;;;;;2.78;1.05;;;;;;;15.24;99.63;99556.09;5073910;28;20033;-37
2023/03/13 10:57:43;;;;;;;2.67;1.05;;;;;;;15.14;98.96;99543.44;5073180;28;20025;-37
2023/03/13 11:00:38;;;;;;;3.60;0.90;;;;;;;15.33;100.00;99548.91;5073650;28;20055;-37
2023/03/13 11:03:17;;;;;;;2.50;0.88;;;;;;;15.50;98.92;99549.19;5073991;28;20507;-37
2023/03/13 11:05:52;;;;;;;2.92;0.98;;;;;;;15.52;98.08;99549.72;5073466;28;20518;-37
2023/03/13 11:08:21;;;;;;;2.88;0.85;;;;;;;15.43;98.50;99537.84;5073176;28;20100;-37
2023/03/13 11:11:19;;;;;;;2.40;0.80;;;;;;;15.49;100.00;99547.56;5073123;28;20111;-37
2023/03/13 11:13:45;;;;;;;2.33;1.00;;;;;;;15.36;100.00;99545.56;5073032;28;20040;-37
2023/03/13 11:16:16;;;;;;;5.22;1.13;;;;;;;15.36;100.00;99551.81;5073399;28;20036;-37
2023/03/13 11:19:07;;;;;;;2.20;0.90;;;;;;;15.42;99.76;99549.84;5073614;28;20032;-37
2023/03/13 11:21:57;;;;;;;3.35;0.90;;;;;;;15.44;98.14;99539.47;5073306;28;20515;-37
2023/03/13 11:24:31;;;;;;;2.65;0.90;;;;;;;15.49;95.68;99527.69;5073349;28;20021;-37
2023/03/13 11:27:14;;;;;;;2.53;0.80;;;;;;;15.34;96.25;99510.47;5073555;28;20371;-37
2023/03/13 11:29:45;;;;;;;4.60;0.93;;;;;;;15.31;96.27;99527.38;5073341;28;20032;-37
2023/03/13 11:32:25;;;;;;;1.55;0.80;;;;;;;15.21;96.38;99522.09;5072981;28;20098;-37